createdAt,value
2022-10-18T03:57:25.640Z,10.61
2022-10-18T04:00:28.121Z,10.61
2022-10-18T04:03:30.394Z,10.11
2022-10-18T04:06:32.420Z,10.25
2022-10-18T04:09:34.709Z,10.21
2022-10-18T04:12:36.785Z,10.25
2022-10-18T04:15:39.198Z,10.26
2022-10-18T04:18:41.385Z,10.38
2022-10-18T04:21:43.685Z,10.42
2022-10-18T04:24:45.725Z,10.29
2022-10-18T04:27:48.045Z,10.35
2022-10-18T04:30:53.526Z,10.28
2022-10-18T04:33:55.818Z,10.36
2022-10-18T04:36:57.870Z,10.37
2022-10-18T04:40:00.183Z,10.37
2022-10-18T04:43:02.302Z,10.31
2022-10-18T04:46:04.646Z,10.24
2022-10-18T04:49:06.689Z,10.19
2022-10-18T04:52:09.294Z,10.13
2022-10-18T04:55:11.308Z,10.12
2022-10-18T04:58:13.686Z,10.11
2022-10-18T05:01:17.066Z,10.08
2022-10-18T05:04:19.461Z,10.09
2022-10-18T05:07:21.483Z,10.02
2022-10-18T05:10:23.766Z,10.12
2022-10-18T05:13:26.320Z,10.01
2022-10-18T05:16:28.735Z,10.03
2022-10-18T05:19:30.810Z,10.05
2022-10-18T05:22:33.377Z,10.02
2022-10-18T05:25:38.713Z,9.94
2022-10-18T05:28:41.587Z,9.99
2022-10-18T05:31:43.732Z,10.03
2022-10-18T05:34:46.051Z,10.01
2022-10-18T05:40:50.650Z,10.04
2022-10-18T05:43:52.710Z,9.95
2022-10-18T05:46:55.017Z,10.03
2022-10-18T05:49:57.458Z,10.13
2022-10-18T05:53:11.851Z,10.05
2022-10-18T05:56:14.569Z,10.07
2022-10-18T05:59:16.869Z,10.12
2022-10-18T06:02:19.157Z,10.27
2022-10-18T06:05:21.672Z,10.28
2022-10-18T06:08:23.760Z,10.39
2022-10-18T06:11:26.446Z,10.45
2022-10-18T06:14:28.477Z,10.55
2022-10-18T06:17:32.614Z,10.61
2022-10-18T06:20:34.869Z,10.61
2022-10-18T06:23:37.207Z,10.63
2022-10-18T06:26:39.293Z,10.76
2022-10-18T06:29:41.639Z,10.92
2022-10-18T06:32:43.732Z,11.05
2022-10-18T06:36:07.069Z,11.11
2022-10-18T06:39:10.490Z,11.20
2022-10-18T06:42:12.762Z,11.31
2022-10-18T06:45:15.897Z,11.40
2022-10-18T06:51:22.275Z,11.61
2022-10-18T06:54:24.573Z,11.70
2022-10-18T06:57:26.706Z,11.83
2022-10-18T07:00:29.070Z,11.96
2022-10-18T07:03:31.138Z,12.15
2022-10-18T07:06:33.459Z,12.36
2022-10-18T07:09:35.835Z,12.45
2022-10-18T07:12:40.461Z,12.56
2022-10-18T07:15:42.693Z,12.77
2022-10-18T07:18:49.163Z,13.05
2022-10-18T07:21:51.193Z,13.18
2022-10-18T07:24:53.637Z,13.18
2022-10-18T07:27:55.929Z,13.20
2022-10-18T07:31:06.106Z,13.33
2022-10-18T07:34:12.213Z,13.37
2022-10-18T07:37:14.514Z,13.47
2022-10-18T07:40:16.685Z,13.53
2022-10-18T07:43:18.957Z,13.70
2022-10-18T07:46:22.179Z,13.83
2022-10-18T07:49:24.508Z,13.82
2022-10-18T07:52:26.539Z,13.82
2022-10-18T07:55:28.839Z,13.89
2022-10-18T07:58:32.584Z,14.02
2022-10-18T08:01:34.948Z,13.99
2022-10-18T08:04:37.350Z,14.15
2022-10-18T08:07:39.587Z,14.18
2022-10-18T08:10:41.989Z,14.20
2022-10-18T08:13:46.000Z,14.26
2022-10-18T08:16:48.303Z,14.21
2022-10-18T08:20:04.662Z,14.23
2022-10-18T08:23:12.872Z,14.37
2022-10-18T08:26:17.467Z,14.39
2022-10-18T08:29:26.732Z,14.50
2022-10-18T08:32:31.156Z,14.67
2022-10-18T08:35:33.774Z,14.87
2022-10-18T08:38:37.225Z,14.90
2022-10-18T08:42:06.341Z,14.85
2022-10-18T08:45:17.728Z,14.83
2022-10-18T08:48:49.448Z,14.92
2022-10-18T08:51:52.336Z,14.95
2022-10-18T08:55:29.784Z,15.00
2022-10-18T08:58:33.630Z,15.06
2022-10-18T09:01:52.517Z,15.08
2022-10-18T09:05:01.313Z,15.16
2022-10-18T09:08:21.935Z,15.21
2022-10-18T09:11:38.007Z,15.23
2022-10-18T09:15:19.237Z,15.30
2022-10-18T09:18:48.122Z,15.40
2022-10-18T09:21:55.594Z,15.44
2022-10-18T09:25:00.369Z,15.58
2022-10-18T09:28:33.496Z,15.65
2022-10-18T09:31:48.572Z,15.79
2022-10-18T09:35:02.118Z,15.69
2022-10-18T09:38:09.177Z,15.71
2022-10-18T09:41:26.696Z,15.85
2022-10-18T09:44:36.922Z,15.86
2022-10-18T09:47:47.835Z,15.96
2022-10-18T09:51:00.700Z,15.97
2022-10-18T09:54:11.614Z,16.06
2022-10-18T09:57:21.811Z,16.12
2022-10-18T10:00:38.714Z,16.27
2022-10-18T10:03:42.503Z,16.23
2022-10-18T10:06:50.740Z,16.38
2022-10-18T10:10:08.844Z,16.48
2022-10-18T10:13:22.672Z,16.40
2022-10-18T10:16:26.914Z,16.49
2022-10-18T10:19:32.214Z,16.47
2022-10-18T10:22:37.972Z,16.62
2022-10-18T10:25:41.104Z,16.59
2022-10-18T10:28:46.303Z,16.62
2022-10-18T10:32:02.450Z,16.69
2022-10-18T10:35:35.304Z,16.72
2022-10-18T10:38:44.678Z,16.76
2022-10-18T10:41:50.822Z,16.77
2022-10-18T10:44:55.876Z,16.77
2022-10-18T10:48:08.077Z,16.81
2022-10-18T10:51:10.827Z,16.82
2022-10-18T10:54:16.581Z,16.84
2022-10-18T10:57:25.899Z,16.89
2022-10-18T11:00:37.494Z,16.91
2022-10-18T11:03:46.845Z,17.06
2022-10-18T11:06:53.940Z,17.06
2022-10-18T11:10:11.360Z,17.11
2022-10-18T11:13:41.474Z,17.20
2022-10-18T11:17:10.524Z,17.32
2022-10-18T11:20:24.732Z,17.17
2022-10-18T11:23:34.041Z,17.27
2022-10-18T11:27:02.358Z,17.22
2022-10-18T11:30:16.778Z,17.31
2022-10-18T11:33:56.425Z,17.36
2022-10-18T11:37:32.333Z,17.45
2022-10-18T11:40:40.600Z,17.49
2022-10-18T11:44:06.939Z,17.48
2022-10-18T11:47:34.393Z,17.67
2022-10-18T11:50:48.661Z,17.66
2022-10-18T11:54:08.256Z,17.52
2022-10-18T11:57:44.652Z,17.55
2022-10-18T12:00:53.348Z,17.56
2022-10-18T12:04:07.874Z,17.54
2022-10-18T12:07:14.030Z,17.58
2022-10-18T12:10:31.405Z,17.63
2022-10-18T12:14:19.270Z,17.64
2022-10-18T12:17:49.885Z,17.79
2022-10-18T12:20:58.105Z,17.78
2022-10-18T12:24:07.826Z,17.80
2022-10-18T12:27:15.159Z,17.82
2022-10-18T12:30:42.267Z,17.88
2022-10-18T12:33:48.633Z,17.95
2022-10-18T12:37:00.881Z,18.04
2022-10-18T12:40:14.554Z,18.03
2022-10-18T12:43:32.772Z,18.04
2022-10-18T12:46:54.400Z,18.14
2022-10-18T12:50:03.130Z,18.13
2022-10-18T12:53:29.749Z,18.03
2022-10-18T12:56:37.610Z,18.08
2022-10-18T12:59:41.066Z,18.08
2022-10-18T13:02:43.379Z,18.03
2022-10-18T13:05:55.711Z,17.98
2022-10-18T13:09:31.100Z,18.07
2022-10-18T13:12:50.769Z,18.19
2022-10-18T13:16:02.538Z,18.19
2022-10-18T13:19:29.633Z,18.13
2022-10-18T13:23:00.281Z,18.13
2022-10-18T13:26:31.864Z,18.14
2022-10-18T13:29:58.652Z,18.17
2022-10-18T13:33:31.643Z,18.22
2022-10-18T13:36:33.971Z,18.21
2022-10-18T13:39:37.660Z,18.26
2022-10-18T13:42:40.044Z,18.28
2022-10-18T13:45:44.702Z,18.34
2022-10-18T13:48:59.265Z,18.27
2022-10-18T13:52:34.193Z,18.31
2022-10-18T13:55:36.618Z,18.29
2022-10-18T13:59:15.119Z,18.27
2022-10-18T14:02:59.698Z,18.22
2022-10-18T14:06:15.016Z,18.22
2022-10-18T14:09:40.270Z,18.20
2022-10-18T14:12:54.038Z,18.18
2022-10-18T14:16:05.392Z,18.20
2022-10-18T14:19:26.069Z,18.19
2022-10-18T14:23:02.614Z,18.16
2022-10-18T14:26:13.117Z,18.17
2022-10-18T14:29:20.270Z,18.16
2022-10-18T14:32:28.936Z,18.12
2022-10-18T14:35:33.786Z,18.08
2022-10-18T14:38:38.561Z,18.04
2022-10-18T14:41:49.955Z,18.02
2022-10-18T14:44:54.435Z,17.98
2022-10-18T14:48:06.489Z,17.98
2022-10-18T14:51:11.288Z,18.00
2022-10-18T14:54:36.499Z,17.95
2022-10-18T14:57:38.769Z,17.92
2022-10-18T15:00:42.837Z,17.91
2022-10-18T15:03:48.102Z,17.90
2022-10-18T15:06:50.142Z,17.88
2022-10-18T15:09:53.486Z,17.81
2022-10-18T15:13:09.658Z,17.82
2022-10-18T15:16:18.322Z,17.77
2022-10-18T15:19:31.514Z,17.72
2022-10-18T15:22:34.070Z,17.68
